sensor_id;sensor_type;location;lat;lon;timestamp;pressure;altitude;pressure_sealevel;temperature
20490;BMP280;10403;54.092;12.122;2022-08-05T00:00:17;101395.63;;;26.62
20490;BMP280;10403;54.092;12.122;2022-08-05T00:02:46;101399.81;;;26.66
20490;BMP280;10403;54.092;12.122;2022-08-05T00:05:22;101409.25;;;26.72
20490;BMP280;10403;54.092;12.122;2022-08-05T00:08:09;101419.69;;;26.64
20490;BMP280;10403;54.092;12.122;2022-08-05T00:10:58;101430.19;;;26.67
20490;BMP280;10403;54.092;12.122;2022-08-05T00:13:33;101422.47;;;26.62
20490;BMP280;10403;54.092;12.122;2022-08-05T00:16:10;101427.94;;;26.61
20490;BMP280;10403;54.092;12.122;2022-08-05T00:18:43;101420.88;;;26.60
20490;BMP280;10403;54.092;12.122;2022-08-05T00:21:12;101425.06;;;26.51
20490;BMP280;10403;54.092;12.122;2022-08-05T00:23:44;101430.94;;;26.56
20490;BMP280;10403;54.092;12.122;2022-08-05T00:26:32;101433.00;;;26.52
20490;BMP280;10403;54.092;12.122;2022-08-05T00:28:59;101431.38;;;26.50
20490;BMP280;10403;54.092;12.122;2022-08-05T00:31:28;101417.97;;;26.37
20490;BMP280;10403;54.092;12.122;2022-08-05T00:34:15;101433.84;;;26.40
20490;BMP280;10403;54.092;12.122;2022-08-05T00:37:02;101411.41;;;26.29
20490;BMP280;10403;54.092;12.122;2022-08-05T00:39:40;101414.09;;;26.29
20490;BMP280;10403;54.092;12.122;2022-08-05T00:42:37;101406.53;;;26.21
20490;BMP280;10403;54.092;12.122;2022-08-05T00:45:07;101411.47;;;26.14
20490;BMP280;10403;54.092;12.122;2022-08-05T00:47:39;101380.69;;;25.95
20490;BMP280;10403;54.092;12.122;2022-08-05T00:50:24;101387.50;;;25.86
20490;BMP280;10403;54.092;12.122;2022-08-05T00:52:52;101390.16;;;25.86
20490;BMP280;10403;54.092;12.122;2022-08-05T00:55:22;101397.06;;;25.90
20490;BMP280;10403;54.092;12.122;2022-08-05T00:58:12;101401.25;;;25.94
20490;BMP280;10403;54.092;12.122;2022-08-05T01:00:40;101398.78;;;25.91
20490;BMP280;10403;54.092;12.122;2022-08-05T01:03:09;101404.25;;;25.90
20490;BMP280;10403;54.092;12.122;2022-08-05T01:05:50;101409.06;;;25.85
20490;BMP280;10403;54.092;12.122;2022-08-05T01:08:21;101395.84;;;25.82
20490;BMP280;10403;54.092;12.122;2022-08-05T01:11:18;101418.78;;;25.86
20490;BMP280;10403;54.092;12.122;2022-08-05T01:14:03;101434.06;;;25.85
20490;BMP280;10403;54.092;12.122;2022-08-05T01:17:05;101435.00;;;25.84
20490;BMP280;10403;54.092;12.122;2022-08-05T01:19:40;101442.16;;;25.71
20490;BMP280;10403;54.092;12.122;2022-08-05T01:22:57;101455.13;;;25.77
20490;BMP280;10403;54.092;12.122;2022-08-05T01:29:10;101459.38;;;25.67
20490;BMP280;10403;54.092;12.122;2022-08-05T01:31:55;101454.81;;;25.55
20490;BMP280;10403;54.092;12.122;2022-08-05T01:34:31;101458.44;;;25.54
20490;BMP280;10403;54.092;12.122;2022-08-05T01:37:18;101442.38;;;25.54
20490;BMP280;10403;54.092;12.122;2022-08-05T01:39:53;101442.91;;;25.59
20490;BMP280;10403;54.092;12.122;2022-08-05T01:42:28;101434.25;;;25.55
20490;BMP280;10403;54.092;12.122;2022-08-05T01:44:59;101439.38;;;25.58
20490;BMP280;10403;54.092;12.122;2022-08-05T01:47:31;101436.25;;;25.52
20490;BMP280;10403;54.092;12.122;2022-08-05T01:50:16;101442.75;;;25.48
20490;BMP280;10403;54.092;12.122;2022-08-05T01:53:03;101433.41;;;25.40
20490;BMP280;10403;54.092;12.122;2022-08-05T01:55:35;101432.44;;;25.41
20490;BMP280;10403;54.092;12.122;2022-08-05T01:58:06;101452.22;;;25.53
20490;BMP280;10403;54.092;12.122;2022-08-05T02:00:49;101437.41;;;25.48
20490;BMP280;10403;54.092;12.122;2022-08-05T02:03:37;101454.34;;;25.48
20490;BMP280;10403;54.092;12.122;2022-08-05T02:06:08;101447.56;;;25.42
20490;BMP280;10403;54.092;12.122;2022-08-05T02:08:56;101442.72;;;25.35
20490;BMP280;10403;54.092;12.122;2022-08-05T02:11:35;101455.16;;;25.36
20490;BMP280;10403;54.092;12.122;2022-08-05T02:14:14;101440.72;;;25.24
20490;BMP280;10403;54.092;12.122;2022-08-05T02:16:50;101450.53;;;25.38
20490;BMP280;10403;54.092;12.122;2022-08-05T02:19:34;101446.13;;;25.37
20490;BMP280;10403;54.092;12.122;2022-08-05T02:22:29;101434.97;;;25.30
20490;BMP280;10403;54.092;12.122;2022-08-05T02:25:05;101448.75;;;25.24
20490;BMP280;10403;54.092;12.122;2022-08-05T02:27:40;101450.56;;;25.24
20490;BMP280;10403;54.092;12.122;2022-08-05T02:30:35;101440.91;;;25.21
20490;BMP280;10403;54.092;12.122;2022-08-05T02:33:21;101446.84;;;25.12
20490;BMP280;10403;54.092;12.122;2022-08-05T02:35:54;101452.81;;;25.03
20490;BMP280;10403;54.092;12.122;2022-08-05T02:38:29;101451.81;;;24.90
20490;BMP280;10403;54.092;12.122;2022-08-05T02:41:22;101471.81;;;24.98
20490;BMP280;10403;54.092;12.122;2022-08-05T02:43:57;101475.94;;;25.04
20490;BMP280;10403;54.092;12.122;2022-08-05T02:46:40;101439.22;;;24.92
20490;BMP280;10403;54.092;12.122;2022-08-05T02:49:33;101460.94;;;25.01
20490;BMP280;10403;54.092;12.122;2022-08-05T02:52:17;101456.31;;;24.89
20490;BMP280;10403;54.092;12.122;2022-08-05T02:55:00;101468.81;;;24.89
20490;BMP280;10403;54.092;12.122;2022-08-05T02:57:33;101456.00;;;24.80
20490;BMP280;10403;54.092;12.122;2022-08-05T03:00:21;101465.22;;;24.76
20490;BMP280;10403;54.092;12.122;2022-08-05T03:02:52;101435.41;;;24.67
20490;BMP280;10403;54.092;12.122;2022-08-05T03:05:21;101429.53;;;24.61
20490;BMP280;10403;54.092;12.122;2022-08-05T03:08:10;101404.00;;;24.27
20490;BMP280;10403;54.092;12.122;2022-08-05T03:10:44;101422.91;;;24.24
20490;BMP280;10403;54.092;12.122;2022-08-05T03:13:31;101425.41;;;24.11
20490;BMP280;10403;54.092;12.122;2022-08-05T03:16:19;101426.66;;;24.06
20490;BMP280;10403;54.092;12.122;2022-08-05T03:18:48;101420.63;;;24.02
20490;BMP280;10403;54.092;12.122;2022-08-05T03:21:15;101411.25;;;23.95
20490;BMP280;10403;54.092;12.122;2022-08-05T03:23:44;101423.06;;;23.91
20490;BMP280;10403;54.092;12.122;2022-08-05T03:26:12;101310.69;;;23.18
20490;BMP280;10403;54.092;12.122;2022-08-05T03:29:00;101412.25;;;23.78
20490;BMP280;10403;54.092;12.122;2022-08-05T03:31:28;101394.44;;;23.63
20490;BMP280;10403;54.092;12.122;2022-08-05T03:34:16;101410.88;;;23.71
20490;BMP280;10403;54.092;12.122;2022-08-05T03:36:44;101420.44;;;23.75
20490;BMP280;10403;54.092;12.122;2022-08-05T03:39:11;101414.16;;;23.76
20490;BMP280;10403;54.092;12.122;2022-08-05T03:41:53;101425.34;;;23.83
20490;BMP280;10403;54.092;12.122;2022-08-05T03:44:23;101409.38;;;23.81
20490;BMP280;10403;54.092;12.122;2022-08-05T03:46:55;101396.03;;;23.81
20490;BMP280;10403;54.092;12.122;2022-08-05T03:49:22;101403.63;;;23.89
20490;BMP280;10403;54.092;12.122;2022-08-05T03:52:03;101395.47;;;23.90
20490;BMP280;10403;54.092;12.122;2022-08-05T03:54:58;101386.03;;;23.85
20490;BMP280;10403;54.092;12.122;2022-08-05T03:57:51;101385.88;;;23.72
20490;BMP280;10403;54.092;12.122;2022-08-05T04:00:19;101382.44;;;23.70
20490;BMP280;10403;54.092;12.122;2022-08-05T04:02:54;101382.75;;;23.80
20490;BMP280;10403;54.092;12.122;2022-08-05T04:05:30;101380.94;;;23.80
20490;BMP280;10403;54.092;12.122;2022-08-05T04:08:07;101378.50;;;23.91
20490;BMP280;10403;54.092;12.122;2022-08-05T04:10:43;101381.00;;;23.94
20490;BMP280;10403;54.092;12.122;2022-08-05T04:13:11;101399.06;;;24.05
20490;BMP280;10403;54.092;12.122;2022-08-05T04:15:39;101416.53;;;24.11
20490;BMP280;10403;54.092;12.122;2022-08-05T04:18:28;101424.38;;;24.14
20490;BMP280;10403;54.092;12.122;2022-08-05T04:20:57;101391.69;;;23.94
20490;BMP280;10403;54.092;12.122;2022-08-05T04:23:27;101429.56;;;24.17
20490;BMP280;10403;54.092;12.122;2022-08-05T04:26:15;101436.50;;;24.19
20490;BMP280;10403;54.092;12.122;2022-08-05T04:28:43;101436.41;;;24.21
20490;BMP280;10403;54.092;12.122;2022-08-05T04:31:18;101447.41;;;24.16
20490;BMP280;10403;54.092;12.122;2022-08-05T04:33:47;101472.84;;;24.23
20490;BMP280;10403;54.092;12.122;2022-08-05T04:36:34;101456.28;;;24.17
20490;BMP280;10403;54.092;12.122;2022-08-05T04:39:20;101456.38;;;24.15
20490;BMP280;10403;54.092;12.122;2022-08-05T04:41:48;101423.03;;;24.07
20490;BMP280;10403;54.092;12.122;2022-08-05T04:44:18;101415.78;;;24.09
20490;BMP280;10403;54.092;12.122;2022-08-05T04:47:00;101403.16;;;23.96
20490;BMP280;10403;54.092;12.122;2022-08-05T04:49:38;101435.94;;;24.14
20490;BMP280;10403;54.092;12.122;2022-08-05T04:52:25;101448.34;;;24.15
20490;BMP280;10403;54.092;12.122;2022-08-05T04:54:54;101439.00;;;24.08
20490;BMP280;10403;54.092;12.122;2022-08-05T04:57:24;101430.53;;;24.00
20490;BMP280;10403;54.092;12.122;2022-08-05T04:59:56;101440.59;;;24.11
20490;BMP280;10403;54.092;12.122;2022-08-05T05:02:26;101450.50;;;24.24
20490;BMP280;10403;54.092;12.122;2022-08-05T05:05:08;101436.97;;;24.12
20490;BMP280;10403;54.092;12.122;2022-08-05T05:08:09;101436.97;;;24.12
20490;BMP280;10403;54.092;12.122;2022-08-05T05:10:57;101453.00;;;24.12
20490;BMP280;10403;54.092;12.122;2022-08-05T05:13:26;101434.69;;;24.06
20490;BMP280;10403;54.092;12.122;2022-08-05T05:16:09;101449.22;;;24.16
20490;BMP280;10403;54.092;12.122;2022-08-05T05:18:37;101448.69;;;24.09
20490;BMP280;10403;54.092;12.122;2022-08-05T05:21:05;101433.81;;;24.05
20490;BMP280;10403;54.092;12.122;2022-08-05T05:23:32;101428.38;;;24.07
20490;BMP280;10403;54.092;12.122;2022-08-05T05:26:20;101434.13;;;24.15
20490;BMP280;10403;54.092;12.122;2022-08-05T05:28:59;101412.50;;;24.04
20490;BMP280;10403;54.092;12.122;2022-08-05T05:31:28;101428.38;;;24.07
20490;BMP280;10403;54.092;12.122;2022-08-05T05:33:57;101411.47;;;24.06
20490;BMP280;10403;54.092;12.122;2022-08-05T05:36:30;101434.00;;;24.02
20490;BMP280;10403;54.092;12.122;2022-08-05T05:38:57;101441.34;;;23.98
20490;BMP280;10403;54.092;12.122;2022-08-05T05:41:26;101453.88;;;24.12
20490;BMP280;10403;54.092;12.122;2022-08-05T05:44:08;101423.91;;;24.07
20490;BMP280;10403;54.092;12.122;2022-08-05T05:46:55;101394.09;;;23.99
20490;BMP280;10403;54.092;12.122;2022-08-05T05:49:24;101444.72;;;24.16
20490;BMP280;10403;54.092;12.122;2022-08-05T05:51:53;101455.69;;;24.27
20490;BMP280;10403;54.092;12.122;2022-08-05T05:54:20;101454.75;;;24.28
20490;BMP280;10403;54.092;12.122;2022-08-05T05:57:08;101456.38;;;24.15
20490;BMP280;10403;54.092;12.122;2022-08-05T05:59:40;101494.06;;;24.26
20490;BMP280;10403;54.092;12.122;2022-08-05T06:02:09;101481.97;;;24.19
20490;BMP280;10403;54.092;12.122;2022-08-05T06:04:36;101476.50;;;24.07
20490;BMP280;10403;54.092;12.122;2022-08-05T06:07:04;101482.00;;;24.04
20490;BMP280;10403;54.092;12.122;2022-08-05T06:09:31;101508.91;;;24.01
20490;BMP280;10403;54.092;12.122;2022-08-05T06:12:18;101499.28;;;23.98
20490;BMP280;10403;54.092;12.122;2022-08-05T06:14:47;101479.09;;;23.92
20490;BMP280;10403;54.092;12.122;2022-08-05T06:17:17;101491.69;;;23.90
20490;BMP280;10403;54.092;12.122;2022-08-05T06:19:50;101508.69;;;23.89
20490;BMP280;10403;54.092;12.122;2022-08-05T06:22:33;101519.81;;;23.97
20490;BMP280;10403;54.092;12.122;2022-08-05T06:25:02;101541.25;;;24.12
20490;BMP280;10403;54.092;12.122;2022-08-05T06:27:50;101522.91;;;24.06
20490;BMP280;10403;54.092;12.122;2022-08-05T06:30:37;101542.03;;;24.14
20490;BMP280;10403;54.092;12.122;2022-08-05T06:33:04;101542.03;;;24.14
20490;BMP280;10403;54.092;12.122;2022-08-05T06:35:36;101538.03;;;24.21
20490;BMP280;10403;54.092;12.122;2022-08-05T06:38:24;101528.38;;;24.34
20490;BMP280;10403;54.092;12.122;2022-08-05T06:41:03;101514.22;;;24.32
20490;BMP280;10403;54.092;12.122;2022-08-05T06:43:34;101523.53;;;24.41
20490;BMP280;10403;54.092;12.122;2022-08-05T06:46:21;101529.25;;;24.34
20490;BMP280;10403;54.092;12.122;2022-08-05T06:48:55;101538.47;;;24.29
20490;BMP280;10403;54.092;12.122;2022-08-05T06:51:25;101521.25;;;24.19
20490;BMP280;10403;54.092;12.122;2022-08-05T06:54:02;101551.84;;;24.29
20490;BMP280;10403;54.092;12.122;2022-08-05T06:56:31;101543.09;;;24.41
20490;BMP280;10403;54.092;12.122;2022-08-05T06:59:02;101530.19;;;24.33
20490;BMP280;10403;54.092;12.122;2022-08-05T07:01:37;101534.44;;;24.22
20490;BMP280;10403;54.092;12.122;2022-08-05T07:04:08;101543.75;;;24.15
20490;BMP280;10403;54.092;12.122;2022-08-05T07:06:35;101561.75;;;24.11
20490;BMP280;10403;54.092;12.122;2022-08-05T07:09:03;101556.69;;;24.07
20490;BMP280;10403;54.092;12.122;2022-08-05T07:11:34;101552.63;;;23.99
20490;BMP280;10403;54.092;12.122;2022-08-05T07:14:04;101553.56;;;24.14
20490;BMP280;10403;54.092;12.122;2022-08-05T07:16:58;101550.50;;;24.06
20490;BMP280;10403;54.092;12.122;2022-08-05T07:19:49;101548.59;;;23.92
20490;BMP280;10403;54.092;12.122;2022-08-05T07:22:38;101569.91;;;23.94
20490;BMP280;10403;54.092;12.122;2022-08-05T07:25:09;101576.03;;;23.96
20490;BMP280;10403;54.092;12.122;2022-08-05T07:27:56;101583.19;;;23.95
20490;BMP280;10403;54.092;12.122;2022-08-05T07:30:36;101566.72;;;23.87
20490;BMP280;10403;54.092;12.122;2022-08-05T07:33:08;101559.91;;;23.82
20490;BMP280;10403;54.092;12.122;2022-08-05T07:35:44;101566.72;;;23.87
20490;BMP280;10403;54.092;12.122;2022-08-05T07:38:34;101584.28;;;23.91
20490;BMP280;10403;54.092;12.122;2022-08-05T07:41:16;101583.00;;;23.83
20490;BMP280;10403;54.092;12.122;2022-08-05T07:44:08;101581.81;;;23.88
20490;BMP280;10403;54.092;12.122;2022-08-05T07:46:47;101581.88;;;23.87
20490;BMP280;10403;54.092;12.122;2022-08-05T07:49:17;101546.38;;;23.69
20490;BMP280;10403;54.092;12.122;2022-08-05T07:51:46;101580.88;;;23.89
20490;BMP280;10403;54.092;12.122;2022-08-05T07:54:22;101587.03;;;23.90
20490;BMP280;10403;54.092;12.122;2022-08-05T07:57:02;101576.34;;;23.90
20490;BMP280;10403;54.092;12.122;2022-08-05T07:59:50;101577.56;;;23.84
20490;BMP280;10403;54.092;12.122;2022-08-05T08:02:22;101563.50;;;23.81
20490;BMP280;10403;54.092;12.122;2022-08-05T08:04:58;101553.28;;;23.89
20490;BMP280;10403;54.092;12.122;2022-08-05T08:07:27;101541.03;;;23.85
20490;BMP280;10403;54.092;12.122;2022-08-05T08:10:06;101553.16;;;23.90
20490;BMP280;10403;54.092;12.122;2022-08-05T08:12:35;101563.09;;;23.88
20490;BMP280;10403;54.092;12.122;2022-08-05T08:15:16;101557.56;;;23.76
20490;BMP280;10403;54.092;12.122;2022-08-05T08:17:44;101560.06;;;23.63
20490;BMP280;10403;54.092;12.122;2022-08-05T08:20:21;101551.31;;;23.44
20490;BMP280;10403;54.092;12.122;2022-08-05T08:23:09;101553.03;;;23.29
20490;BMP280;10403;54.092;12.122;2022-08-05T08:25:57;101557.81;;;23.22
20490;BMP280;10403;54.092;12.122;2022-08-05T08:28:31;101555.72;;;23.12
20490;BMP280;10403;54.092;12.122;2022-08-05T08:31:08;101567.25;;;23.12
20490;BMP280;10403;54.092;12.122;2022-08-05T08:33:46;101554.84;;;23.11
20490;BMP280;10403;54.092;12.122;2022-08-05T08:36:19;101536.88;;;23.15
20490;BMP280;10403;54.092;12.122;2022-08-05T08:39:06;101559.75;;;23.36
20490;BMP280;10403;54.092;12.122;2022-08-05T08:41:46;101531.13;;;23.22
20490;BMP280;10403;54.092;12.122;2022-08-05T08:44:30;101545.44;;;23.37
20490;BMP280;10403;54.092;12.122;2022-08-05T08:47:23;101562.13;;;23.58
20490;BMP280;10403;54.092;12.122;2022-08-05T08:50:12;101540.25;;;23.67
20490;BMP280;10403;54.092;12.122;2022-08-05T08:53:04;101542.41;;;23.76
20490;BMP280;10403;54.092;12.122;2022-08-05T08:55:39;101553.28;;;23.89
20490;BMP280;10403;54.092;12.122;2022-08-05T08:58:28;101541.34;;;23.94
20490;BMP280;10403;54.092;12.122;2022-08-05T09:01:15;101557.97;;;24.15
20490;BMP280;10403;54.092;12.122;2022-08-05T09:03:49;101566.19;;;24.28
20490;BMP280;10403;54.092;12.122;2022-08-05T09:06:23;101569.03;;;24.25
20490;BMP280;10403;54.092;12.122;2022-08-05T09:08:58;101580.44;;;24.28
20490;BMP280;10403;54.092;12.122;2022-08-05T09:11:28;101558.97;;;23.98
20490;BMP280;10403;54.092;12.122;2022-08-05T09:14:17;101558.53;;;23.75
20490;BMP280;10403;54.092;12.122;2022-08-05T09:17:08;101568.16;;;23.61
20490;BMP280;10403;54.092;12.122;2022-08-05T09:19:57;101573.84;;;23.55
20490;BMP280;10403;54.092;12.122;2022-08-05T09:23:14;101599.53;;;23.58
20490;BMP280;10403;54.092;12.122;2022-08-05T09:25:50;101611.84;;;23.60
20490;BMP280;10403;54.092;12.122;2022-08-05T09:28:33;101605.41;;;23.65
20490;BMP280;10403;54.092;12.122;2022-08-05T09:31:13;101591.34;;;23.61
20490;BMP280;10403;54.092;12.122;2022-08-05T09:34:06;101603.66;;;23.64
20490;BMP280;10403;54.092;12.122;2022-08-05T09:36:47;101599.69;;;23.55
20490;BMP280;10403;54.092;12.122;2022-08-05T09:39:26;101600.78;;;23.51
20490;BMP280;10403;54.092;12.122;2022-08-05T09:42:19;101609.59;;;23.53
20490;BMP280;10403;54.092;12.122;2022-08-05T09:44:55;101620.47;;;23.50
20490;BMP280;10403;54.092;12.122;2022-08-05T09:47:43;101633.31;;;23.42
20490;BMP280;10403;54.092;12.122;2022-08-05T09:50:36;101629.09;;;23.38
20490;BMP280;10403;54.092;12.122;2022-08-05T09:53:11;101636.78;;;23.44
20490;BMP280;10403;54.092;12.122;2022-08-05T09:55:59;101651.41;;;23.54
20490;BMP280;10403;54.092;12.122;2022-08-05T09:58:31;101650.44;;;23.55
20490;BMP280;10403;54.092;12.122;2022-08-05T10:01:05;101639.84;;;23.53
20490;BMP280;10403;54.092;12.122;2022-08-05T10:04:15;101641.03;;;23.48
20490;BMP280;10403;54.092;12.122;2022-08-05T10:06:55;101619.03;;;23.43
20490;BMP280;10403;54.092;12.122;2022-08-05T10:09:26;101634.81;;;23.47
20490;BMP280;10403;54.092;12.122;2022-08-05T10:12:09;101610.41;;;23.38
20490;BMP280;10403;54.092;12.122;2022-08-05T10:18:15;101604.94;;;23.23
20490;BMP280;10403;54.092;12.122;2022-08-05T10:20:46;101604.06;;;23.23
20490;BMP280;10403;54.092;12.122;2022-08-05T10:26:10;101586.25;;;23.23
20490;BMP280;10403;54.092;12.122;2022-08-05T10:28:43;101581.94;;;23.21
20490;BMP280;10403;54.092;12.122;2022-08-05T10:31:15;101570.72;;;23.14
20490;BMP280;10403;54.092;12.122;2022-08-05T10:34:02;101561.91;;;23.12
20490;BMP280;10403;54.092;12.122;2022-08-05T10:36:36;101576.22;;;23.11
20490;BMP280;10403;54.092;12.122;2022-08-05T10:39:30;101585.19;;;23.10
20490;BMP280;10403;54.092;12.122;2022-08-05T10:42:23;101590.19;;;23.16
20490;BMP280;10403;54.092;12.122;2022-08-05T10:45:02;101572.59;;;23.12
20490;BMP280;10403;54.092;12.122;2022-08-05T10:47:50;101574.31;;;23.13
20490;BMP280;10403;54.092;12.122;2022-08-05T10:53:54;101570.69;;;22.99
20490;BMP280;10403;54.092;12.122;2022-08-05T10:56:52;101566.34;;;22.96
20490;BMP280;10403;54.092;12.122;2022-08-05T10:59:30;101576.31;;;22.93
20490;BMP280;10403;54.092;12.122;2022-08-05T11:02:18;101589.44;;;22.97
20490;BMP280;10403;54.092;12.122;2022-08-05T11:05:08;101587.22;;;23.05
20490;BMP280;10403;54.092;12.122;2022-08-05T11:07:57;101571.56;;;23.15
20490;BMP280;10403;54.092;12.122;2022-08-05T11:10:34;101584.28;;;23.27
20490;BMP280;10403;54.092;12.122;2022-08-05T11:13:40;101583.84;;;23.35
20490;BMP280;10403;54.092;12.122;2022-08-05T11:16:24;101582.91;;;23.36
20490;BMP280;10403;54.092;12.122;2022-08-05T11:19:29;101603.19;;;23.40
20490;BMP280;10403;54.092;12.122;2022-08-05T11:22:46;101609.19;;;23.28
20490;BMP280;10403;54.092;12.122;2022-08-05T11:25:36;101610.44;;;23.20
20490;BMP280;10403;54.092;12.122;2022-08-05T11:33:39;101629.59;;;23.29
20490;BMP280;10403;54.092;12.122;2022-08-05T11:36:37;101619.38;;;23.37
20490;BMP280;10403;54.092;12.122;2022-08-05T11:39:10;101616.63;;;23.38
20490;BMP280;10403;54.092;12.122;2022-08-05T11:41:49;101618.66;;;23.33
20490;BMP280;10403;54.092;12.122;2022-08-05T11:44:36;101623.69;;;23.22
20490;BMP280;10403;54.092;12.122;2022-08-05T11:47:24;101630.16;;;23.18
20490;BMP280;10403;54.092;12.122;2022-08-05T11:50:11;101637.75;;;23.25
20490;BMP280;10403;54.092;12.122;2022-08-05T11:52:41;101632.72;;;23.37
20490;BMP280;10403;54.092;12.122;2022-08-05T11:55:15;101633.50;;;23.39
20490;BMP280;10403;54.092;12.122;2022-08-05T11:57:45;101617.09;;;23.29
20490;BMP280;10403;54.092;12.122;2022-08-05T12:00:33;101644.69;;;23.30
20490;BMP280;10403;54.092;12.122;2022-08-05T12:03:18;101632.69;;;23.21
20490;BMP280;10403;54.092;12.122;2022-08-05T12:06:01;101637.22;;;23.19
20490;BMP280;10403;54.092;12.122;2022-08-05T12:08:32;101639.97;;;23.17
20490;BMP280;10403;54.092;12.122;2022-08-05T12:11:03;101634.00;;;23.12
20490;BMP280;10403;54.092;12.122;2022-08-05T12:13:32;101644.59;;;23.14
20490;BMP280;10403;54.092;12.122;2022-08-05T12:16:20;101650.41;;;23.22
20490;BMP280;10403;54.092;12.122;2022-08-05T12:18:54;101658.25;;;23.25
20490;BMP280;10403;54.092;12.122;2022-08-05T12:21:34;101669.25;;;23.19
20490;BMP280;10403;54.092;12.122;2022-08-05T12:24:09;101681.28;;;23.10
20490;BMP280;10403;54.092;12.122;2022-08-05T12:26:44;101676.16;;;23.06
20490;BMP280;10403;54.092;12.122;2022-08-05T12:29:20;101681.91;;;22.98
20490;BMP280;10403;54.092;12.122;2022-08-05T12:31:52;101690.13;;;22.94
20490;BMP280;10403;54.092;12.122;2022-08-05T12:34:30;101677.50;;;22.80
20490;BMP280;10403;54.092;12.122;2022-08-05T12:37:03;101687.00;;;22.85
20490;BMP280;10403;54.092;12.122;2022-08-05T12:39:38;101677.50;;;22.80
20490;BMP280;10403;54.092;12.122;2022-08-05T12:42:14;101703.06;;;22.84
20490;BMP280;10403;54.092;12.122;2022-08-05T12:44:44;101701.59;;;22.78
20490;BMP280;10403;54.092;12.122;2022-08-05T12:47:29;101699.97;;;22.74
20490;BMP280;10403;54.092;12.122;2022-08-05T12:49:58;101704.75;;;22.68
20490;BMP280;10403;54.092;12.122;2022-08-05T12:52:34;101700.75;;;22.59
20490;BMP280;10403;54.092;12.122;2022-08-05T12:55:17;101726.88;;;22.70
20490;BMP280;10403;54.092;12.122;2022-08-05T12:57:51;101724.81;;;22.76
20490;BMP280;10403;54.092;12.122;2022-08-05T13:00:43;101720.44;;;22.74
20490;BMP280;10403;54.092;12.122;2022-08-05T13:03:35;101725.53;;;22.61
20490;BMP280;10403;54.092;12.122;2022-08-05T13:06:15;101731.38;;;22.50
20490;BMP280;10403;54.092;12.122;2022-08-05T13:08:46;101739.53;;;22.47
20490;BMP280;10403;54.092;12.122;2022-08-05T13:11:28;101722.81;;;22.25
20490;BMP280;10403;54.092;12.122;2022-08-05T13:14:23;101743.94;;;22.30
20490;BMP280;10403;54.092;12.122;2022-08-05T13:20:09;101759.34;;;22.23
20490;BMP280;10403;54.092;12.122;2022-08-05T13:22:40;101771.91;;;22.21
20490;BMP280;10403;54.092;12.122;2022-08-05T13:25:11;101792.41;;;22.19
20490;BMP280;10403;54.092;12.122;2022-08-05T13:27:53;101762.84;;;22.05
20490;BMP280;10403;54.092;12.122;2022-08-05T13:30:23;101798.50;;;22.23
20490;BMP280;10403;54.092;12.122;2022-08-05T13:33:01;101776.91;;;22.08
20490;BMP280;10403;54.092;12.122;2022-08-05T13:35:29;101807.53;;;22.19
20490;BMP280;10403;54.092;12.122;2022-08-05T13:38:12;101789.72;;;22.00
20490;BMP280;10403;54.092;12.122;2022-08-05T13:40:58;101811.56;;;22.08
20490;BMP280;10403;54.092;12.122;2022-08-05T13:43:26;101807.16;;;22.07
20490;BMP280;10403;54.092;12.122;2022-08-05T13:46:14;101798.97;;;21.92
20490;BMP280;10403;54.092;12.122;2022-08-05T13:48:42;101796.44;;;21.89
20490;BMP280;10403;54.092;12.122;2022-08-05T13:51:30;101799.97;;;21.89
20490;BMP280;10403;54.092;12.122;2022-08-05T13:54:10;101786.31;;;21.76
20490;BMP280;10403;54.092;12.122;2022-08-05T13:56:43;101799.97;;;21.89
20490;BMP280;10403;54.092;12.122;2022-08-05T13:59:22;101801.13;;;21.84
20490;BMP280;10403;54.092;12.122;2022-08-05T14:01:53;101799.63;;;21.76
20490;BMP280;10403;54.092;12.122;2022-08-05T14:04:35;101804.84;;;21.79
20490;BMP280;10403;54.092;12.122;2022-08-05T14:07:28;101805.63;;;21.82
20490;BMP280;10403;54.092;12.122;2022-08-05T14:10:18;101790.59;;;21.81
20490;BMP280;10403;54.092;12.122;2022-08-05T14:12:58;101797.28;;;21.89
20490;BMP280;10403;54.092;12.122;2022-08-05T14:15:27;101790.16;;;21.90
20490;BMP280;10403;54.092;12.122;2022-08-05T14:18:14;101784.03;;;21.88
20490;BMP280;10403;54.092;12.122;2022-08-05T14:20:49;101782.19;;;21.90
20490;BMP280;10403;54.092;12.122;2022-08-05T14:23:22;101775.41;;;21.83
20490;BMP280;10403;54.092;12.122;2022-08-05T14:25:54;101783.69;;;21.95
20490;BMP280;10403;54.092;12.122;2022-08-05T14:28:27;101790.72;;;21.98
20490;BMP280;10403;54.092;12.122;2022-08-05T14:30:56;101788.94;;;21.98
20490;BMP280;10403;54.092;12.122;2022-08-05T14:33:24;101788.16;;;21.95
20490;BMP280;10403;54.092;12.122;2022-08-05T14:35:51;101771.25;;;21.75
20490;BMP280;10403;54.092;12.122;2022-08-05T14:38:21;101777.38;;;21.77
20490;BMP280;10403;54.092;12.122;2022-08-05T14:41:05;101784.31;;;21.82
20490;BMP280;10403;54.092;12.122;2022-08-05T14:43:35;101787.00;;;21.82
20490;BMP280;10403;54.092;12.122;2022-08-05T14:46:25;101781.66;;;21.82
20490;BMP280;10403;54.092;12.122;2022-08-05T14:48:58;101779.06;;;21.80
20490;BMP280;10403;54.092;12.122;2022-08-05T14:51:37;101773.41;;;21.67
20490;BMP280;10403;54.092;12.122;2022-08-05T14:54:10;101764.09;;;21.57
20490;BMP280;10403;54.092;12.122;2022-08-05T14:56:57;101753.03;;;21.46
20490;BMP280;10403;54.092;12.122;2022-08-05T14:59:26;101780.00;;;21.59
20490;BMP280;10403;54.092;12.122;2022-08-05T15:01:56;101777.78;;;21.48
20490;BMP280;10403;54.092;12.122;2022-08-05T15:04:26;101800.28;;;21.41
20490;BMP280;10403;54.092;12.122;2022-08-05T15:06:55;101807.06;;;21.28
20490;BMP280;10403;54.092;12.122;2022-08-05T15:09:22;101802.97;;;21.19